sensor_id;sensor_type;location;lat;lon;timestamp;P1;durP1;ratioP1;P2;durP2;ratioP2
36259;SDS011;22296;50.824;5.644;2023-06-24T00:00:11;2.78;;;2.30;;
36259;SDS011;22296;50.824;5.644;2023-06-24T00:02:44;2.40;;;2.15;;
36259;SDS011;22296;50.824;5.644;2023-06-24T00:05:12;2.77;;;2.20;;
36259;SDS011;22296;50.824;5.644;2023-06-24T00:07:39;4.60;;;2.55;;
36259;SDS011;22296;50.824;5.644;2023-06-24T00:10:12;2.90;;;2.17;;
36259;SDS011;22296;50.824;5.644;2023-06-24T00:12:42;2.15;;;1.90;;
36259;SDS011;22296;50.824;5.644;2023-06-24T00:15:09;2.75;;;2.33;;
36259;SDS011;22296;50.824;5.644;2023-06-24T00:17:37;3.38;;;2.42;;
36259;SDS011;22296;50.824;5.644;2023-06-24T00:20:04;4.68;;;2.50;;
36259;SDS011;22296;50.824;5.644;2023-06-24T00:22:34;3.33;;;2.60;;
36259;SDS011;22296;50.824;5.644;2023-06-24T00:25:01;2.55;;;2.35;;
36259;SDS011;22296;50.824;5.644;2023-06-24T00:27:28;3.22;;;2.22;;
36259;SDS011;22296;50.824;5.644;2023-06-24T00:29:55;2.72;;;2.33;;
36259;SDS011;22296;50.824;5.644;2023-06-24T00:32:22;2.60;;;2.40;;
36259;SDS011;22296;50.824;5.644;2023-06-24T00:34:49;2.65;;;2.45;;
36259;SDS011;22296;50.824;5.644;2023-06-24T00:37:17;3.07;;;2.77;;
36259;SDS011;22296;50.824;5.644;2023-06-24T00:39:44;3.85;;;2.20;;
36259;SDS011;22296;50.824;5.644;2023-06-24T00:42:11;4.40;;;2.67;;
36259;SDS011;22296;50.824;5.644;2023-06-24T00:44:37;3.38;;;2.38;;
36259;SDS011;22296;50.824;5.644;2023-06-24T00:47:06;4.87;;;2.80;;
36259;SDS011;22296;50.824;5.644;2023-06-24T00:49:34;2.80;;;2.60;;
36259;SDS011;22296;50.824;5.644;2023-06-24T00:52:01;2.65;;;2.45;;
36259;SDS011;22296;50.824;5.644;2023-06-24T00:54:28;4.75;;;2.47;;
36259;SDS011;22296;50.824;5.644;2023-06-24T00:56:58;3.72;;;2.55;;
36259;SDS011;22296;50.824;5.644;2023-06-24T00:59:28;3.55;;;2.60;;
36259;SDS011;22296;50.824;5.644;2023-06-24T01:01:57;3.38;;;2.30;;
36259;SDS011;22296;50.824;5.644;2023-06-24T01:04:28;3.20;;;2.70;;
36259;SDS011;22296;50.824;5.644;2023-06-24T01:06:55;2.53;;;2.33;;
36259;SDS011;22296;50.824;5.644;2023-06-24T01:09:23;2.50;;;2.30;;
36259;SDS011;22296;50.824;5.644;2023-06-24T01:11:51;3.25;;;2.50;;
36259;SDS011;22296;50.824;5.644;2023-06-24T01:14:21;3.00;;;2.60;;
36259;SDS011;22296;50.824;5.644;2023-06-24T01:22:48;4.32;;;2.70;;
36259;SDS011;22296;50.824;5.644;2023-06-24T01:31:48;2.60;;;2.40;;
36259;SDS011;22296;50.824;5.644;2023-06-24T01:37:00;2.90;;;2.50;;
36259;SDS011;22296;50.824;5.644;2023-06-24T01:42:51;2.80;;;2.50;;
36259;SDS011;22296;50.824;5.644;2023-06-24T01:45:21;3.00;;;2.40;;
36259;SDS011;22296;50.824;5.644;2023-06-24T01:47:59;3.35;;;2.47;;
36259;SDS011;22296;50.824;5.644;2023-06-24T01:50:31;2.88;;;2.55;;
36259;SDS011;22296;50.824;5.644;2023-06-24T01:53:03;3.70;;;2.90;;
36259;SDS011;22296;50.824;5.644;2023-06-24T01:55:32;3.95;;;2.90;;
36259;SDS011;22296;50.824;5.644;2023-06-24T01:58:02;3.65;;;2.60;;
36259;SDS011;22296;50.824;5.644;2023-06-24T02:00:31;2.58;;;2.38;;
36259;SDS011;22296;50.824;5.644;2023-06-24T02:03:00;3.55;;;2.50;;
36259;SDS011;22296;50.824;5.644;2023-06-24T02:05:29;4.15;;;2.97;;
36259;SDS011;22296;50.824;5.644;2023-06-24T02:07:59;2.97;;;2.40;;
36259;SDS011;22296;50.824;5.644;2023-06-24T02:10:27;3.20;;;2.60;;
36259;SDS011;22296;50.824;5.644;2023-06-24T02:15:24;2.92;;;2.45;;
36259;SDS011;22296;50.824;5.644;2023-06-24T02:17:54;4.05;;;2.75;;
36259;SDS011;22296;50.824;5.644;2023-06-24T02:20:23;4.75;;;2.67;;
36259;SDS011;22296;50.824;5.644;2023-06-24T02:22:53;3.35;;;2.50;;
36259;SDS011;22296;50.824;5.644;2023-06-24T02:25:21;3.57;;;2.77;;
36259;SDS011;22296;50.824;5.644;2023-06-24T02:27:50;2.85;;;2.63;;
36259;SDS011;22296;50.824;5.644;2023-06-24T02:30:18;5.87;;;2.97;;
36259;SDS011;22296;50.824;5.644;2023-06-24T02:32:47;4.25;;;3.20;;
36259;SDS011;22296;50.824;5.644;2023-06-24T02:35:14;3.83;;;2.70;;
36259;SDS011;22296;50.824;5.644;2023-06-24T02:37:41;4.50;;;2.70;;
36259;SDS011;22296;50.824;5.644;2023-06-24T02:40:08;3.22;;;2.85;;
36259;SDS011;22296;50.824;5.644;2023-06-24T02:42:37;3.78;;;3.20;;
36259;SDS011;22296;50.824;5.644;2023-06-24T02:45:04;3.33;;;2.88;;
36259;SDS011;22296;50.824;5.644;2023-06-24T02:47:33;3.40;;;2.92;;
36259;SDS011;22296;50.824;5.644;2023-06-24T02:50:04;3.38;;;2.75;;
36259;SDS011;22296;50.824;5.644;2023-06-24T02:52:34;5.00;;;2.85;;
36259;SDS011;22296;50.824;5.644;2023-06-24T02:55:06;3.92;;;3.30;;
36259;SDS011;22296;50.824;5.644;2023-06-24T02:57:39;4.82;;;3.10;;
36259;SDS011;22296;50.824;5.644;2023-06-24T03:00:12;4.03;;;2.55;;
36259;SDS011;22296;50.824;5.644;2023-06-24T03:03:04;4.18;;;3.35;;
36259;SDS011;22296;50.824;5.644;2023-06-24T03:05:35;3.70;;;3.08;;
36259;SDS011;22296;50.824;5.644;2023-06-24T03:08:03;5.07;;;3.08;;
36259;SDS011;22296;50.824;5.644;2023-06-24T03:10:32;4.50;;;3.00;;
36259;SDS011;22296;50.824;5.644;2023-06-24T03:12:59;5.20;;;2.90;;
36259;SDS011;22296;50.824;5.644;2023-06-24T03:15:36;4.65;;;3.90;;
36259;SDS011;22296;50.824;5.644;2023-06-24T03:18:03;4.13;;;3.05;;
36259;SDS011;22296;50.824;5.644;2023-06-24T03:20:31;3.05;;;2.75;;
36259;SDS011;22296;50.824;5.644;2023-06-24T03:23:11;5.25;;;2.97;;
36259;SDS011;22296;50.824;5.644;2023-06-24T03:25:38;4.15;;;3.00;;
36259;SDS011;22296;50.824;5.644;2023-06-24T03:28:05;3.80;;;3.22;;
36259;SDS011;22296;50.824;5.644;2023-06-24T03:30:39;3.83;;;2.88;;
36259;SDS011;22296;50.824;5.644;2023-06-24T03:33:06;3.78;;;3.05;;
36259;SDS011;22296;50.824;5.644;2023-06-24T03:35:33;4.55;;;3.25;;
36259;SDS011;22296;50.824;5.644;2023-06-24T03:38:04;3.60;;;3.28;;
36259;SDS011;22296;50.824;5.644;2023-06-24T03:40:33;3.97;;;3.22;;
36259;SDS011;22296;50.824;5.644;2023-06-24T03:42:59;3.70;;;3.30;;
36259;SDS011;22296;50.824;5.644;2023-06-24T03:45:26;4.53;;;3.15;;
36259;SDS011;22296;50.824;5.644;2023-06-24T03:47:53;4.78;;;3.10;;
36259;SDS011;22296;50.824;5.644;2023-06-24T03:50:20;3.92;;;2.75;;
36259;SDS011;22296;50.824;5.644;2023-06-24T03:52:47;4.57;;;3.30;;
36259;SDS011;22296;50.824;5.644;2023-06-24T03:55:14;4.53;;;3.17;;
36259;SDS011;22296;50.824;5.644;2023-06-24T03:57:41;4.30;;;3.35;;
36259;SDS011;22296;50.824;5.644;2023-06-24T04:00:08;3.38;;;2.88;;
36259;SDS011;22296;50.824;5.644;2023-06-24T04:02:44;3.80;;;3.22;;
36259;SDS011;22296;50.824;5.644;2023-06-24T04:05:11;4.93;;;3.00;;
36259;SDS011;22296;50.824;5.644;2023-06-24T04:07:38;5.00;;;3.22;;
36259;SDS011;22296;50.824;5.644;2023-06-24T04:10:06;3.22;;;2.88;;
36259;SDS011;22296;50.824;5.644;2023-06-24T04:12:37;4.07;;;3.10;;
36259;SDS011;22296;50.824;5.644;2023-06-24T04:15:04;4.63;;;3.20;;
36259;SDS011;22296;50.824;5.644;2023-06-24T04:17:32;4.90;;;3.40;;
36259;SDS011;22296;50.824;5.644;2023-06-24T04:20:00;3.72;;;3.20;;
36259;SDS011;22296;50.824;5.644;2023-06-24T04:22:30;4.38;;;3.22;;
36259;SDS011;22296;50.824;5.644;2023-06-24T04:24:58;3.80;;;2.87;;
36259;SDS011;22296;50.824;5.644;2023-06-24T04:27:25;3.80;;;3.10;;
36259;SDS011;22296;50.824;5.644;2023-06-24T04:29:52;4.38;;;3.20;;
36259;SDS011;22296;50.824;5.644;2023-06-24T04:32:18;4.45;;;3.60;;
36259;SDS011;22296;50.824;5.644;2023-06-24T04:34:46;4.57;;;3.28;;
36259;SDS011;22296;50.824;5.644;2023-06-24T04:37:13;4.05;;;3.13;;
36259;SDS011;22296;50.824;5.644;2023-06-24T04:39:40;5.45;;;3.35;;
36259;SDS011;22296;50.824;5.644;2023-06-24T04:42:08;3.30;;;3.00;;
36259;SDS011;22296;50.824;5.644;2023-06-24T04:44:35;3.80;;;3.00;;
36259;SDS011;22296;50.824;5.644;2023-06-24T04:47:03;4.65;;;2.90;;
36259;SDS011;22296;50.824;5.644;2023-06-24T04:49:30;3.58;;;2.85;;
36259;SDS011;22296;50.824;5.644;2023-06-24T04:51:59;4.45;;;2.97;;
36259;SDS011;22296;50.824;5.644;2023-06-24T04:54:27;4.07;;;3.17;;
36259;SDS011;22296;50.824;5.644;2023-06-24T04:56:53;3.83;;;3.25;;
36259;SDS011;22296;50.824;5.644;2023-06-24T04:59:23;3.22;;;2.63;;
36259;SDS011;22296;50.824;5.644;2023-06-24T05:01:50;4.18;;;3.17;;
36259;SDS011;22296;50.824;5.644;2023-06-24T05:04:17;3.45;;;2.88;;
36259;SDS011;22296;50.824;5.644;2023-06-24T05:06:44;4.82;;;3.53;;
36259;SDS011;22296;50.824;5.644;2023-06-24T05:09:11;3.33;;;2.92;;
36259;SDS011;22296;50.824;5.644;2023-06-24T05:11:40;3.17;;;2.67;;
36259;SDS011;22296;50.824;5.644;2023-06-24T05:14:07;3.33;;;2.55;;
36259;SDS011;22296;50.824;5.644;2023-06-24T05:16:35;2.83;;;2.53;;
36259;SDS011;22296;50.824;5.644;2023-06-24T05:19:02;3.78;;;2.80;;
36259;SDS011;22296;50.824;5.644;2023-06-24T05:21:28;3.33;;;2.55;;
36259;SDS011;22296;50.824;5.644;2023-06-24T05:23:55;3.33;;;2.58;;
36259;SDS011;22296;50.824;5.644;2023-06-24T05:26:22;2.70;;;2.50;;
36259;SDS011;22296;50.824;5.644;2023-06-24T05:28:49;3.20;;;2.60;;
36259;SDS011;22296;50.824;5.644;2023-06-24T05:31:15;3.95;;;2.80;;
36259;SDS011;22296;50.824;5.644;2023-06-24T05:33:42;3.50;;;2.55;;
36259;SDS011;22296;50.824;5.644;2023-06-24T05:36:09;2.90;;;2.60;;
36259;SDS011;22296;50.824;5.644;2023-06-24T05:38:35;2.97;;;2.53;;
36259;SDS011;22296;50.824;5.644;2023-06-24T05:41:02;3.38;;;2.50;;
36259;SDS011;22296;50.824;5.644;2023-06-24T05:43:29;3.15;;;2.38;;
36259;SDS011;22296;50.824;5.644;2023-06-24T05:45:56;2.90;;;2.60;;
36259;SDS011;22296;50.824;5.644;2023-06-24T05:48:23;3.38;;;2.55;;
36259;SDS011;22296;50.824;5.644;2023-06-24T05:50:49;3.33;;;2.53;;
36259;SDS011;22296;50.824;5.644;2023-06-24T05:53:16;3.22;;;2.30;;
36259;SDS011;22296;50.824;5.644;2023-06-24T05:55:43;3.58;;;2.65;;
36259;SDS011;22296;50.824;5.644;2023-06-24T05:58:10;2.65;;;2.45;;
36259;SDS011;22296;50.824;5.644;2023-06-24T06:00:37;3.17;;;2.63;;
36259;SDS011;22296;50.824;5.644;2023-06-24T06:03:03;2.78;;;2.35;;
36259;SDS011;22296;50.824;5.644;2023-06-24T06:05:31;3.83;;;2.57;;
36259;SDS011;22296;50.824;5.644;2023-06-24T06:07:59;2.40;;;2.20;;
36259;SDS011;22296;50.824;5.644;2023-06-24T06:10:25;2.85;;;2.20;;
36259;SDS011;22296;50.824;5.644;2023-06-24T06:12:52;4.20;;;2.90;;
36259;SDS011;22296;50.824;5.644;2023-06-24T06:15:19;3.40;;;2.55;;
36259;SDS011;22296;50.824;5.644;2023-06-24T06:17:46;2.70;;;2.50;;
36259;SDS011;22296;50.824;5.644;2023-06-24T06:20:13;3.58;;;3.03;;
36259;SDS011;22296;50.824;5.644;2023-06-24T06:22:40;3.67;;;2.90;;
36259;SDS011;22296;50.824;5.644;2023-06-24T06:25:07;3.20;;;2.70;;
36259;SDS011;22296;50.824;5.644;2023-06-24T06:27:34;3.80;;;2.50;;
36259;SDS011;22296;50.824;5.644;2023-06-24T06:30:01;3.80;;;3.00;;
36259;SDS011;22296;50.824;5.644;2023-06-24T06:32:28;4.35;;;2.47;;
36259;SDS011;22296;50.824;5.644;2023-06-24T06:34:57;2.63;;;2.42;;
36259;SDS011;22296;50.824;5.644;2023-06-24T06:37:24;4.32;;;2.40;;
36259;SDS011;22296;50.824;5.644;2023-06-24T06:39:51;3.45;;;2.45;;
36259;SDS011;22296;50.824;5.644;2023-06-24T06:42:18;4.13;;;2.58;;
36259;SDS011;22296;50.824;5.644;2023-06-24T06:44:45;2.80;;;2.60;;
36259;SDS011;22296;50.824;5.644;2023-06-24T06:47:12;3.05;;;2.75;;
36259;SDS011;22296;50.824;5.644;2023-06-24T06:49:39;3.10;;;2.60;;
36259;SDS011;22296;50.824;5.644;2023-06-24T06:52:06;2.50;;;2.30;;
36259;SDS011;22296;50.824;5.644;2023-06-24T06:54:33;3.92;;;2.55;;
36259;SDS011;22296;50.824;5.644;2023-06-24T06:57:03;3.08;;;2.58;;
36259;SDS011;22296;50.824;5.644;2023-06-24T06:59:31;3.58;;;2.33;;
36259;SDS011;22296;50.824;5.644;2023-06-24T07:01:58;3.08;;;2.60;;
36259;SDS011;22296;50.824;5.644;2023-06-24T07:04:25;3.30;;;2.67;;
36259;SDS011;22296;50.824;5.644;2023-06-24T07:06:52;3.00;;;2.35;;
36259;SDS011;22296;50.824;5.644;2023-06-24T07:09:19;2.80;;;2.50;;
36259;SDS011;22296;50.824;5.644;2023-06-24T07:11:46;3.28;;;2.42;;
36259;SDS011;22296;50.824;5.644;2023-06-24T07:14:13;2.75;;;2.15;;
36259;SDS011;22296;50.824;5.644;2023-06-24T07:16:39;2.60;;;2.40;;
36259;SDS011;22296;50.824;5.644;2023-06-24T07:19:06;2.75;;;2.50;;
36259;SDS011;22296;50.824;5.644;2023-06-24T07:21:33;2.58;;;2.13;;
36259;SDS011;22296;50.824;5.644;2023-06-24T07:24:00;3.00;;;2.70;;
36259;SDS011;22296;50.824;5.644;2023-06-24T07:26:27;2.35;;;2.15;;
36259;SDS011;22296;50.824;5.644;2023-06-24T07:28:56;2.83;;;2.60;;
36259;SDS011;22296;50.824;5.644;2023-06-24T07:31:34;2.28;;;2.08;;
36259;SDS011;22296;50.824;5.644;2023-06-24T07:34:01;3.67;;;2.40;;
36259;SDS011;22296;50.824;5.644;2023-06-24T07:36:28;2.45;;;2.25;;
36259;SDS011;22296;50.824;5.644;2023-06-24T07:38:55;2.33;;;2.10;;
36259;SDS011;22296;50.824;5.644;2023-06-24T07:41:22;2.40;;;2.20;;
36259;SDS011;22296;50.824;5.644;2023-06-24T07:43:49;2.40;;;2.20;;
36259;SDS011;22296;50.824;5.644;2023-06-24T07:46:16;2.53;;;2.17;;
36259;SDS011;22296;50.824;5.644;2023-06-24T07:48:42;2.53;;;2.30;;
36259;SDS011;22296;50.824;5.644;2023-06-24T07:51:09;2.63;;;2.42;;
36259;SDS011;22296;50.824;5.644;2023-06-24T07:53:36;2.42;;;2.22;;
36259;SDS011;22296;50.824;5.644;2023-06-24T07:56:03;2.83;;;1.83;;
36259;SDS011;22296;50.824;5.644;2023-06-24T07:58:30;2.58;;;2.00;;
36259;SDS011;22296;50.824;5.644;2023-06-24T08:00:56;2.40;;;2.20;;
36259;SDS011;22296;50.824;5.644;2023-06-24T08:03:24;2.45;;;2.10;;
36259;SDS011;22296;50.824;5.644;2023-06-24T08:05:51;2.20;;;2.00;;
36259;SDS011;22296;50.824;5.644;2023-06-24T08:08:17;2.90;;;2.38;;
36259;SDS011;22296;50.824;5.644;2023-06-24T08:10:46;2.38;;;2.17;;
36259;SDS011;22296;50.824;5.644;2023-06-24T08:13:13;2.17;;;1.98;;
36259;SDS011;22296;50.824;5.644;2023-06-24T08:15:40;2.20;;;1.90;;
36259;SDS011;22296;50.824;5.644;2023-06-24T08:18:08;2.20;;;2.00;;
36259;SDS011;22296;50.824;5.644;2023-06-24T08:20:34;2.58;;;2.08;;
36259;SDS011;22296;50.824;5.644;2023-06-24T08:23:01;2.40;;;2.20;;
36259;SDS011;22296;50.824;5.644;2023-06-24T08:25:28;2.33;;;2.13;;
36259;SDS011;22296;50.824;5.644;2023-06-24T08:27:56;2.10;;;1.90;;
36259;SDS011;22296;50.824;5.644;2023-06-24T08:30:24;2.25;;;1.90;;
36259;SDS011;22296;50.824;5.644;2023-06-24T08:32:51;2.13;;;1.90;;
36259;SDS011;22296;50.824;5.644;2023-06-24T08:35:18;2.20;;;1.98;;
36259;SDS011;22296;50.824;5.644;2023-06-24T08:37:44;3.28;;;1.90;;
36259;SDS011;22296;50.824;5.644;2023-06-24T08:40:11;2.47;;;2.13;;
36259;SDS011;22296;50.824;5.644;2023-06-24T08:42:38;2.10;;;1.80;;
36259;SDS011;22296;50.824;5.644;2023-06-24T08:45:05;2.40;;;2.10;;
36259;SDS011;22296;50.824;5.644;2023-06-24T08:47:33;1.92;;;1.83;;
36259;SDS011;22296;50.824;5.644;2023-06-24T08:50:04;1.80;;;1.70;;
36259;SDS011;22296;50.824;5.644;2023-06-24T08:52:35;2.25;;;1.67;;
36259;SDS011;22296;50.824;5.644;2023-06-24T08:55:04;2.17;;;1.98;;
36259;SDS011;22296;50.824;5.644;2023-06-24T08:57:33;2.13;;;1.92;;
36259;SDS011;22296;50.824;5.644;2023-06-24T09:00:00;2.65;;;2.20;;
36259;SDS011;22296;50.824;5.644;2023-06-24T09:02:28;2.17;;;1.80;;
36259;SDS011;22296;50.824;5.644;2023-06-24T09:04:56;2.40;;;2.10;;
36259;SDS011;22296;50.824;5.644;2023-06-24T09:07:26;2.13;;;1.75;;
36259;SDS011;22296;50.824;5.644;2023-06-24T09:09:57;3.28;;;2.00;;
36259;SDS011;22296;50.824;5.644;2023-06-24T09:12:24;3.00;;;2.00;;
36259;SDS011;22296;50.824;5.644;2023-06-24T09:14:52;3.78;;;2.10;;
36259;SDS011;22296;50.824;5.644;2023-06-24T09:17:20;2.00;;;1.80;;
36259;SDS011;22296;50.824;5.644;2023-06-24T09:19:49;2.70;;;1.90;;
36259;SDS011;22296;50.824;5.644;2023-06-24T09:22:17;1.95;;;1.70;;
36259;SDS011;22296;50.824;5.644;2023-06-24T09:24:45;2.65;;;1.80;;
36259;SDS011;22296;50.824;5.644;2023-06-24T09:27:14;2.90;;;1.92;;
36259;SDS011;22296;50.824;5.644;2023-06-24T09:29:42;2.58;;;2.00;;
36259;SDS011;22296;50.824;5.644;2023-06-24T09:32:09;2.10;;;1.90;;
36259;SDS011;22296;50.824;5.644;2023-06-24T09:34:37;2.08;;;1.80;;
36259;SDS011;22296;50.824;5.644;2023-06-24T09:37:04;2.08;;;1.88;;
36259;SDS011;22296;50.824;5.644;2023-06-24T09:39:35;1.98;;;1.65;;
36259;SDS011;22296;50.824;5.644;2023-06-24T09:42:03;1.70;;;1.60;;
36259;SDS011;22296;50.824;5.644;2023-06-24T09:44:32;2.08;;;1.70;;
36259;SDS011;22296;50.824;5.644;2023-06-24T09:46:59;2.42;;;1.90;;
36259;SDS011;22296;50.824;5.644;2023-06-24T09:49:26;2.25;;;1.83;;
36259;SDS011;22296;50.824;5.644;2023-06-24T09:51:56;1.85;;;1.67;;
36259;SDS011;22296;50.824;5.644;2023-06-24T09:54:25;2.25;;;2.00;;
36259;SDS011;22296;50.824;5.644;2023-06-24T09:56:59;2.22;;;1.70;;
36259;SDS011;22296;50.824;5.644;2023-06-24T09:59:28;2.58;;;1.90;;
36259;SDS011;22296;50.824;5.644;2023-06-24T10:01:57;2.00;;;1.80;;
36259;SDS011;22296;50.824;5.644;2023-06-24T10:04:25;2.30;;;2.10;;
36259;SDS011;22296;50.824;5.644;2023-06-24T10:06:54;2.10;;;1.90;;
36259;SDS011;22296;50.824;5.644;2023-06-24T10:09:22;2.00;;;1.75;;
36259;SDS011;22296;50.824;5.644;2023-06-24T10:11:48;2.65;;;2.00;;
36259;SDS011;22296;50.824;5.644;2023-06-24T10:14:15;2.47;;;1.77;;
36259;SDS011;22296;50.824;5.644;2023-06-24T10:16:43;3.35;;;2.03;;
36259;SDS011;22296;50.824;5.644;2023-06-24T10:19:13;2.97;;;1.98;;
36259;SDS011;22296;50.824;5.644;2023-06-24T10:21:52;3.78;;;2.25;;
36259;SDS011;22296;50.824;5.644;2023-06-24T10:24:38;5.00;;;2.40;;
36259;SDS011;22296;50.824;5.644;2023-06-24T10:27:08;4.43;;;2.15;;
36259;SDS011;22296;50.824;5.644;2023-06-24T10:29:41;7.05;;;2.20;;
36259;SDS011;22296;50.824;5.644;2023-06-24T10:32:11;7.03;;;2.22;;
36259;SDS011;22296;50.824;5.644;2023-06-24T10:34:45;6.47;;;2.72;;
36259;SDS011;22296;50.824;5.644;2023-06-24T10:37:23;3.88;;;2.10;;
36259;SDS011;22296;50.824;5.644;2023-06-24T10:39:55;4.03;;;2.00;;
36259;SDS011;22296;50.824;5.644;2023-06-24T10:47:37;5.57;;;2.35;;
36259;SDS011;22296;50.824;5.644;2023-06-24T10:50:12;4.40;;;2.10;;
36259;SDS011;22296;50.824;5.644;2023-06-24T10:52:41;5.50;;;1.92;;
36259;SDS011;22296;50.824;5.644;2023-06-24T10:55:09;4.10;;;2.20;;
36259;SDS011;22296;50.824;5.644;2023-06-24T10:57:36;2.63;;;1.90;;
36259;SDS011;22296;50.824;5.644;2023-06-24T11:00:03;2.95;;;2.22;;
36259;SDS011;22296;50.824;5.644;2023-06-24T11:02:31;2.42;;;1.60;;
36259;SDS011;22296;50.824;5.644;2023-06-24T11:04:59;5.05;;;2.03;;
36259;SDS011;22296;50.824;5.644;2023-06-24T11:07:28;2.80;;;1.77;;
36259;SDS011;22296;50.824;5.644;2023-06-24T11:09:58;2.60;;;1.75;;
36259;SDS011;22296;50.824;5.644;2023-06-24T11:12:29;2.08;;;1.60;;
36259;SDS011;22296;50.824;5.644;2023-06-24T11:14:57;2.03;;;1.55;;
36259;SDS011;22296;50.824;5.644;2023-06-24T11:17:27;2.90;;;1.58;;
36259;SDS011;22296;50.824;5.644;2023-06-24T11:19:55;3.58;;;1.75;;
36259;SDS011;22296;50.824;5.644;2023-06-24T11:22:23;2.92;;;2.00;;
36259;SDS011;22296;50.824;5.644;2023-06-24T11:24:51;2.10;;;1.73;;
36259;SDS011;22296;50.824;5.644;2023-06-24T11:27:25;2.55;;;1.70;;
36259;SDS011;22296;50.824;5.644;2023-06-24T11:29:53;1.90;;;1.67;;
36259;SDS011;22296;50.824;5.644;2023-06-24T11:32:22;3.67;;;2.00;;
36259;SDS011;22296;50.824;5.644;2023-06-24T11:34:49;2.38;;;1.80;;
36259;SDS011;22296;50.824;5.644;2023-06-24T11:37:17;4.03;;;2.08;;
36259;SDS011;22296;50.824;5.644;2023-06-24T11:39:44;3.30;;;1.70;;
36259;SDS011;22296;50.824;5.644;2023-06-24T11:42:28;2.75;;;1.90;;
36259;SDS011;22296;50.824;5.644;2023-06-24T11:45:01;2.40;;;1.65;;
36259;SDS011;22296;50.824;5.644;2023-06-24T11:47:41;2.65;;;1.70;;
36259;SDS011;22296;50.824;5.644;2023-06-24T11:50:08;2.45;;;1.58;;
36259;SDS011;22296;50.824;5.644;2023-06-24T11:57:49;2.00;;;1.77;;
36259;SDS011;22296;50.824;5.644;2023-06-24T12:00:24;2.33;;;1.63;;
36259;SDS011;22296;50.824;5.644;2023-06-24T12:02:53;1.90;;;1.70;;
36259;SDS011;22296;50.824;5.644;2023-06-24T12:05:25;1.73;;;1.50;;
36259;SDS011;22296;50.824;5.644;2023-06-24T12:07:56;3.50;;;1.75;;
36259;SDS011;22296;50.824;5.644;2023-06-24T12:10:24;1.90;;;1.50;;
36259;SDS011;22296;50.824;5.644;2023-06-24T12:12:52;2.20;;;1.80;;
36259;SDS011;22296;50.824;5.644;2023-06-24T12:15:19;2.17;;;1.75;;
36259;SDS011;22296;50.824;5.644;2023-06-24T12:17:46;2.72;;;1.70;;
36259;SDS011;22296;50.824;5.644;2023-06-24T12:20:14;1.90;;;1.65;;
36259;SDS011;22296;50.824;5.644;2023-06-24T12:22:41;3.85;;;1.75;;
36259;SDS011;22296;50.824;5.644;2023-06-24T12:25:09;2.63;;;1.80;;
36259;SDS011;22296;50.824;5.644;2023-06-24T12:27:37;2.20;;;1.80;;
36259;SDS011;22296;50.824;5.644;2023-06-24T12:30:04;2.17;;;1.50;;
36259;SDS011;22296;50.824;5.644;2023-06-24T12:32:31;3.17;;;2.00;;
36259;SDS011;22296;50.824;5.644;2023-06-24T12:34:58;1.98;;;1.40;;
36259;SDS011;22296;50.824;5.644;2023-06-24T12:37:28;1.80;;;1.33;;
36259;SDS011;22296;50.824;5.644;2023-06-24T12:39:56;1.85;;;1.60;;
36259;SDS011;22296;50.824;5.644;2023-06-24T12:42:23;2.75;;;1.85;;
36259;SDS011;22296;50.824;5.644;2023-06-24T12:44:49;2.03;;;1.70;;
36259;SDS011;22296;50.824;5.644;2023-06-24T12:47:18;1.77;;;1.63;;
36259;SDS011;22296;50.824;5.644;2023-06-24T12:49:46;1.60;;;1.50;;
36259;SDS011;22296;50.824;5.644;2023-06-24T12:52:13;2.53;;;1.80;;
36259;SDS011;22296;50.824;5.644;2023-06-24T12:54:40;2.10;;;1.50;;
36259;SDS011;22296;50.824;5.644;2023-06-24T12:57:07;2.13;;;1.77;;
36259;SDS011;22296;50.824;5.644;2023-06-24T12:59:40;2.15;;;1.63;;
36259;SDS011;22296;50.824;5.644;2023-06-24T13:02:07;1.80;;;1.60;;
36259;SDS011;22296;50.824;5.644;2023-06-24T13:04:34;1.77;;;1.65;;
36259;SDS011;22296;50.824;5.644;2023-06-24T13:07:01;2.55;;;1.60;;
36259;SDS011;22296;50.824;5.644;2023-06-24T13:09:29;1.90;;;1.65;;
36259;SDS011;22296;50.824;5.644;2023-06-24T13:11:56;3.03;;;1.73;;
36259;SDS011;22296;50.824;5.644;2023-06-24T13:14:23;2.78;;;1.70;;
36259;SDS011;22296;50.824;5.644;2023-06-24T13:16:54;2.70;;;1.52;;
36259;SDS011;22296;50.824;5.644;2023-06-24T13:19:21;1.70;;;1.60;;
36259;SDS011;22296;50.824;5.644;2023-06-24T13:21:48;2.00;;;1.70;;
36259;SDS011;22296;50.824;5.644;2023-06-24T13:24:15;1.83;;;1.63;;
36259;SDS011;22296;50.824;5.644;2023-06-24T13:26:42;1.60;;;1.50;;
36259;SDS011;22296;50.824;5.644;2023-06-24T13:29:09;1.65;;;1.45;;
36259;SDS011;22296;50.824;5.644;2023-06-24T13:31:36;1.95;;;1.67;;
36259;SDS011;22296;50.824;5.644;2023-06-24T13:34:03;1.70;;;1.42;;
36259;SDS011;22296;50.824;5.644;2023-06-24T13:36:34;1.77;;;1.60;;
36259;SDS011;22296;50.824;5.644;2023-06-24T13:39:07;1.55;;;1.45;;
36259;SDS011;22296;50.824;5.644;2023-06-24T13:41:38;1.98;;;1.77;;
36259;SDS011;22296;50.824;5.644;2023-06-24T13:44:06;2.38;;;1.70;;
36259;SDS011;22296;50.824;5.644;2023-06-24T13:46:33;1.95;;;1.48;;
36259;SDS011;22296;50.824;5.644;2023-06-24T13:49:00;1.80;;;1.50;;
36259;SDS011;22296;50.824;5.644;2023-06-24T13:51:31;2.22;;;1.58;;
36259;SDS011;22296;50.824;5.644;2023-06-24T13:53:58;1.60;;;1.50;;
36259;SDS011;22296;50.824;5.644;2023-06-24T13:56:25;1.33;;;1.20;;
36259;SDS011;22296;50.824;5.644;2023-06-24T13:58:53;1.40;;;1.30;;
36259;SDS011;22296;50.824;5.644;2023-06-24T14:01:20;2.17;;;1.77;;
36259;SDS011;22296;50.824;5.644;2023-06-24T14:03:49;1.97;;;1.37;;
36259;SDS011;22296;50.824;5.644;2023-06-24T14:06:20;1.63;;;1.50;;
36259;SDS011;22296;50.824;5.644;2023-06-24T14:08:51;1.83;;;1.67;;
36259;SDS011;22296;50.824;5.644;2023-06-24T14:11:18;1.90;;;1.58;;
36259;SDS011;22296;50.824;5.644;2023-06-24T14:13:45;1.67;;;1.40;;
36259;SDS011;22296;50.824;5.644;2023-06-24T14:16:12;1.75;;;1.50;;
36259;SDS011;22296;50.824;5.644;2023-06-24T14:18:39;1.90;;;1.38;;
36259;SDS011;22296;50.824;5.644;2023-06-24T14:21:06;1.77;;;1.50;;
36259;SDS011;22296;50.824;5.644;2023-06-24T14:23:33;2.65;;;1.52;;
36259;SDS011;22296;50.824;5.644;2023-06-24T14:26:02;1.45;;;1.27;;
36259;SDS011;22296;50.824;5.644;2023-06-24T14:28:30;1.70;;;1.60;;
36259;SDS011;22296;50.824;5.644;2023-06-24T14:30:56;1.90;;;1.70;;
36259;SDS011;22296;50.824;5.644;2023-06-24T14:33:23;1.90;;;1.30;;
36259;SDS011;22296;50.824;5.644;2023-06-24T14:35:50;1.80;;;1.40;;
36259;SDS011;22296;50.824;5.644;2023-06-24T14:38:18;1.52;;;1.40;;
36259;SDS011;22296;50.824;5.644;2023-06-24T14:40:45;1.58;;;1.40;;
36259;SDS011;22296;50.824;5.644;2023-06-24T14:43:11;1.75;;;1.27;;
36259;SDS011;22296;50.824;5.644;2023-06-24T14:45:38;1.55;;;1.45;;
36259;SDS011;22296;50.824;5.644;2023-06-24T14:48:05;2.00;;;1.80;;
36259;SDS011;22296;50.824;5.644;2023-06-24T14:50:32;2.10;;;1.58;;
36259;SDS011;22296;50.824;5.644;2023-06-24T14:53:02;1.95;;;1.45;;
36259;SDS011;22296;50.824;5.644;2023-06-24T14:55:29;1.60;;;1.50;;
36259;SDS011;22296;50.824;5.644;2023-06-24T14:57:56;1.70;;;1.40;;
36259;SDS011;22296;50.824;5.644;2023-06-24T15:00:23;1.60;;;1.50;;
36259;SDS011;22296;50.824;5.644;2023-06-24T15:02:50;1.73;;;1.40;;
36259;SDS011;22296;50.824;5.644;2023-06-24T15:05:17;3.15;;;1.83;;
36259;SDS011;22296;50.824;5.644;2023-06-24T15:07:44;1.88;;;1.38;;
36259;SDS011;22296;50.824;5.644;2023-06-24T15:10:10;1.65;;;1.55;;
36259;SDS011;22296;50.824;5.644;2023-06-24T15:12:37;2.05;;;1.77;;
36259;SDS011;22296;50.824;5.644;2023-06-24T15:15:06;1.90;;;1.40;;
36259;SDS011;22296;50.824;5.644;2023-06-24T15:17:33;2.00;;;1.40;;
36259;SDS011;22296;50.824;5.644;2023-06-24T15:20:02;3.10;;;1.92;;
36259;SDS011;22296;50.824;5.644;2023-06-24T15:22:29;2.25;;;1.73;;
36259;SDS011;22296;50.824;5.644;2023-06-24T15:24:55;1.77;;;1.50;;